Nearby METAR Reports

 

KCOS - Colorado Springs, Colorado, USA
Distance from station: S 6mi, 9km
Updated: Wed, 28-Feb-2024 7:54am MST
Mist, Overcast
Mist, Overcast
 Wind from ENE
Wind: ENE 3 mph , 6 km/h
Temperature: 19°F , -7°C
Dew Point: 16°F , -9°C
Humidity: 86%
Barometer: 30.12 inHg , 1020 hPa
Summary: Mist
Clouds: Overcast
Visibility: 5 miles , 8 km
Cloud details: Overcast 600 ft
2024/02/28 14:54 KCOS 281454Z 06003KT 5SM BR OVC006 M07/M09 A3012 RMK AO2 SNB18E53 SLP258 P0000 60000 I3001 T10721089 53024
KAFF - Usaf Academy/Cos, Colorado, USA
Distance from station: NW 7mi, 12km
Updated: Wed, 28-Feb-2024 7:55am MST
Mostly cloudy
Mostly cloudy
 Wind from S
Wind: S 3 mph , 6 km/h
Temperature: 18°F , -8°C
Dew Point: 14°F , -10°C
Humidity: 86%
Barometer: 30.08 inHg , 1018.6 hPa
Clouds: Mostly cloudy
Visibility: 10 miles , 16 km
Cloud details: Mostly cloudy 600 ft
2024/02/28 14:55 KAFF 281455Z 18003KT 10SM BKN006 M08/M10 A3008 RMK AO2A SLP248 T10801102 52022
 
KFLY - Co Spngs Meadow, Colorado, USA
Distance from station: ENE 8mi, 13km
Updated: Wed, 28-Feb-2024 7:55am MST
Light snow, Overcast
Light snow, Overcast
 Wind from S
Wind: S 7 mph , 11 km/h
Temperature: 16°F , -9°C
Wind Chill: 6°F , -14°C
Dew Point: 14°F , -10°C
Humidity: 93%
Barometer: 30.09 inHg , 1019 hPa
Summary: Light Snow
Clouds: Overcast
Visibility: 5 miles , 8 km
Cloud details: Overcast 300 ft
2024/02/28 14:55 KFLY 281455Z AUTO 19006KT 5SM -SN OVC003 M09/M10 A3009 RMK AO2 T10861097
KFCS - Fort Carson, Colorado, USA
Distance from station: S 17mi, 27km
Updated: Wed, 28-Feb-2024 7:55am MST
Overcast
Overcast
 Wind from NNW
Wind: NNW 6 mph , 9 km/h
Temperature: 19°F , -7°C
Wind Chill: 11°F , -12°C
Dew Point: 16°F , -9°C
Humidity: 86%
Barometer: 30.12 inHg , 1020 hPa
Clouds: Overcast
Visibility: 10 miles , 16 km
Cloud details: Overcast 500 ft
2024/02/28 14:55 KFCS 281455Z 33005KT 10SM OVC005 M07/M09 A3012 RMK AO2A SNE55 SLP270 P0000 60000 T10731091 52022 $
 
KMNH - Monument/Elbert, Colorado, USA
Distance from station: N 22mi, 35km
Updated: Wed, 28-Feb-2024 7:55am MST
Clear
Clear
 Wind from SW
Wind: SW 10 mph , 17 km/h
Temperature: 23°F , -5°C
Wind Chill: 13°F , -11°C
Dew Point: 1°F , -17°C
Humidity: 39%
Barometer: 30.06 inHg , 1017.9 hPa
Clouds: Clear
Visibility: 10 miles , 16 km
2024/02/28 14:55 KMNH 281455Z AUTO 22009KT 10SM CLR M05/M17 A3006 RMK AO2
K1V6 - Canon City, Colorado, USA
Distance from station: SSW 39mi, 62km
Updated: Wed, 28-Feb-2024 7:55am MST
Clear
Clear
 Wind from W
Wind: W 3 mph , 6 km/h
Temperature: 30°F , -1°C
Dew Point: 3°F , -16°C
Humidity: 31%
Barometer: 30.12 inHg , 1020 hPa
Clouds: Clear
Visibility: 10 miles , 16 km
2024/02/28 14:55 K1V6 281455Z AUTO 26003KT 10SM CLR M01/M16 A3012 RMK AO2
 
KPUB - Pueblo, Colorado, USA
Distance from station: SSE 44mi, 71km
Updated: Wed, 28-Feb-2024 7:53am MST
Clear
Clear
 Wind from N
Wind: N 6 mph , 9 km/h
Temperature: 18°F , -8°C
Wind Chill: 10°F , -12°C
Dew Point: 16°F , -9°C
Humidity: 93%
Barometer: 30.18 inHg , 1022 hPa
Clouds: Clear
Visibility: 10 miles , 16 km
2024/02/28 14:53 KPUB 281453Z 36005KT 10SM CLR M08/M09 A3018 RMK AO2 SLP261 I1002 I3005 T10781094 53020
KAPA - Denver/Arapahoe, Colorado, USA
Distance from station: N 47mi, 75km
Updated: Wed, 28-Feb-2024 7:53am MST
Few Clouds
Few Clouds
 Wind from ESE
Wind: ESE 6 mph , 9 km/h
Temperature: 21°F , -6°C
Wind Chill: 13°F , -11°C
Dew Point: 7°F , -14°C
Humidity: 54%
Barometer: 30.04 inHg , 1017.3 hPa
Clouds: Few Clouds
Visibility: 10 miles , 16 km
Cloud details: Few Clouds 22000 ft
2024/02/28 14:53 KAPA 281453Z 11005KT 10SM FEW220 M06/M14 A3004 RMK AO2 SLP223 T10611144 53013